Terminal Aerodrome Forecast
Issued by NWS Cleveland, OH

Home | Current Version | Previous Version | Graphics & Text | Print | Product List | Glossary On
Versions: 1 2 3 4 5 6 7 8 9 10 11 12 13 14
000
FTUS41 KCLE 261137
TAFERI
TAF
KERI 261137Z 2612/2712 16012G18KT P6SM BKN120 OVC250
     FM261700 21012G18KT 5SM -SHRA OVC025
     FM262300 27015G25KT P6SM SCT025 OVC060=

USA.gov is the U.S. government's official web portal to all federal, state and local government web resources and services.